PWSweather.com
Personal Weather Stations
Station Observations
WISCHPK61
Green Bay Schmitt Park, Green Bay, WI 54311

Green Bay Schmitt ParkGreen Bay, WI 54311

Lat: 44.514277, Lon: -87.935067

Elevation: 735

Station Type: Acu Rite Pro Weather Center model 02032C

http://greenbayweathercam.com

High Low Average
Temperature 65.1°F18.4°C 27.1°F-2.7°C 40.8°F4.9°C
Dew Point 35.3°F1.8°C 24.3°F-4.3°C 29.9°F-1.2°C
Winds 4.6 mph 7.4 kmh Calm Calm 1.0 mph S1.6 kmh S
Wind Gusts 5.8 mph9.3 kmh -- 2.0 mph3.2 kmh
Humidity 93% 32% 69%
Pressure 29.31 in992.6 mb 29.23 in989.8 mb -
Precipitation 0.00 in0.0 mm - -
Hour Temp Dew Point Humidity Winds Wind Gusts Pressure Precip Precip Rate Daily Precip Total
12:00 AM 32.4°F0.2°C 25.7°F-3.5°C 76% Calm Calm -- 29.27 in991.2 mb - 0.00 in0.0 mm 0.00 in0.0 mm
12:15 AM 32.0°F0.0°C 25.9°F-3.4°C 78% Calm Calm 1.2 mph1.9 kmh 29.27 in991.2 mb - 0.00 in0.0 mm 0.00 in0.0 mm
12:30 AM 31.8°F-0.1°C 26.3°F-3.2°C 80% Calm Calm -- 29.27 in991.2 mb - 0.00 in0.0 mm 0.00 in0.0 mm
12:45 AM 31.8°F-0.1°C 26.9°F-2.8°C 82% Calm Calm -- 29.27 in991.2 mb - 0.00 in0.0 mm 0.00 in0.0 mm
01:00 AM 31.8°F-0.1°C 27.2°F-2.7°C 83% Calm Calm -- 29.27 in991.2 mb - 0.00 in0.0 mm 0.00 in0.0 mm
01:15 AM 31.5°F-0.3°C 26.9°F-2.8°C 83% Calm Calm 2.3 mph3.7 kmh 29.28 in991.5 mb - 0.00 in0.0 mm 0.00 in0.0 mm
01:30 AM 31.1°F-0.5°C 26.8°F-2.9°C 84% Calm Calm -- 29.28 in991.5 mb - 0.00 in0.0 mm 0.00 in0.0 mm
01:45 AM 30.9°F-0.6°C 26.6°F-3.0°C 84% Calm Calm -- 29.28 in991.5 mb - 0.00 in0.0 mm 0.00 in0.0 mm
02:00 AM 30.6°F-0.8°C 26.3°F-3.2°C 84% Calm Calm -- 29.28 in991.5 mb - 0.00 in0.0 mm 0.00 in0.0 mm
02:15 AM 30.9°F-0.6°C 26.9°F-2.8°C 85% Calm Calm -- 29.29 in991.9 mb - 0.00 in0.0 mm 0.00 in0.0 mm
02:30 AM 30.7°F-0.7°C 26.7°F-2.9°C 85% Calm Calm -- 29.28 in991.5 mb - 0.00 in0.0 mm 0.00 in0.0 mm
02:45 AM 30.6°F-0.8°C 26.6°F-3.0°C 85% Calm Calm -- 29.28 in991.5 mb - 0.00 in0.0 mm 0.00 in0.0 mm
03:00 AM 30.4°F-0.9°C 26.4°F-3.1°C 85% 2.3 mph WNW3.7 kmh WNW 1.2 mph1.9 kmh 29.27 in991.2 mb - 0.00 in0.0 mm 0.00 in0.0 mm
03:15 AM 30.4°F-0.9°C 26.4°F-3.1°C 85% Calm Calm -- 29.27 in991.2 mb - 0.00 in0.0 mm 0.00 in0.0 mm
03:30 AM 30.2°F-1.0°C 26.2°F-3.2°C 85% Calm Calm -- 29.27 in991.2 mb - 0.00 in0.0 mm 0.00 in0.0 mm
03:45 AM 30.2°F-1.0°C 26.2°F-3.2°C 85% 1.2 mph SSW1.9 kmh SSW 1.2 mph1.9 kmh 29.27 in991.2 mb - 0.00 in0.0 mm 0.00 in0.0 mm
04:00 AM 30.2°F-1.0°C 26.2°F-3.2°C 85% Calm Calm -- 29.27 in991.2 mb - 0.00 in0.0 mm 0.00 in0.0 mm
04:15 AM 30.0°F-1.1°C 25.8°F-3.4°C 84% Calm Calm -- 29.27 in991.2 mb - 0.00 in0.0 mm 0.00 in0.0 mm
04:30 AM 29.7°F-1.3°C 25.7°F-3.5°C 85% Calm Calm -- 29.27 in991.2 mb - 0.00 in0.0 mm 0.00 in0.0 mm
04:45 AM 29.7°F-1.3°C 25.7°F-3.5°C 85% Calm Calm -- 29.27 in991.2 mb - 0.00 in0.0 mm 0.00 in0.0 mm
05:00 AM 29.3°F-1.5°C 25.4°F-3.7°C 85% Calm Calm -- 29.27 in991.2 mb - 0.00 in0.0 mm 0.00 in0.0 mm
05:15 AM 28.9°F-1.7°C 25.0°F-3.9°C 85% Calm Calm -- 29.27 in991.2 mb - 0.00 in0.0 mm 0.00 in0.0 mm
05:30 AM 28.8°F-1.8°C 25.4°F-3.7°C 87% Calm Calm -- 29.27 in991.2 mb - 0.00 in0.0 mm 0.00 in0.0 mm
05:45 AM 28.6°F-1.9°C 25.2°F-3.8°C 87% Calm Calm -- 29.27 in991.2 mb - 0.00 in0.0 mm 0.00 in0.0 mm
06:00 AM 28.2°F-2.1°C 25.1°F-3.8°C 88% Calm Calm -- 29.27 in991.2 mb - 0.00 in0.0 mm 0.00 in0.0 mm
06:15 AM 28.0°F-2.2°C 24.9°F-3.9°C 88% Calm Calm -- 29.28 in991.5 mb - 0.00 in0.0 mm 0.00 in0.0 mm
06:30 AM 27.9°F-2.3°C 24.8°F-4.0°C 88% Calm Calm -- 29.28 in991.5 mb - 0.00 in0.0 mm 0.00 in0.0 mm
06:45 AM 27.5°F-2.5°C 24.7°F-4.1°C 89% Calm Calm -- 29.28 in991.5 mb - 0.00 in0.0 mm 0.00 in0.0 mm
07:00 AM 27.3°F-2.6°C 24.5°F-4.2°C 89% Calm Calm -- 29.28 in991.5 mb - 0.00 in0.0 mm 0.00 in0.0 mm
07:15 AM 27.1°F-2.7°C 24.3°F-4.3°C 89% Calm Calm -- 29.29 in991.9 mb - 0.00 in0.0 mm 0.00 in0.0 mm
07:30 AM 27.1°F-2.7°C 24.3°F-4.3°C 89% Calm Calm -- 29.29 in991.9 mb - 0.00 in0.0 mm 0.00 in0.0 mm
07:45 AM 27.5°F-2.5°C 25.0°F-3.9°C 90% Calm Calm -- 29.29 in991.9 mb - 0.00 in0.0 mm 0.00 in0.0 mm
08:00 AM 28.0°F-2.2°C 25.2°F-3.8°C 89% Calm Calm -- 29.30 in992.2 mb - 0.00 in0.0 mm 0.00 in0.0 mm
08:15 AM 29.7°F-1.3°C 26.0°F-3.3°C 86% Calm Calm -- 29.30 in992.2 mb - 0.00 in0.0 mm 0.00 in0.0 mm
08:30 AM 31.2°F-0.4°C 27.2°F-2.7°C 85% Calm Calm -- 29.30 in992.2 mb - 0.00 in0.0 mm 0.00 in0.0 mm
08:45 AM 34.3°F1.3°C 28.1°F-2.2°C 78% 1.2 mph NW1.9 kmh NW 3.5 mph5.6 kmh 29.30 in992.2 mb - 0.00 in0.0 mm 0.00 in0.0 mm
09:00 AM 36.4°F2.4°C 28.2°F-2.1°C 72% Calm Calm 2.3 mph3.7 kmh 29.30 in992.2 mb - 0.00 in0.0 mm 0.00 in0.0 mm
09:15 AM 38.6°F3.7°C 29.3°F-1.5°C 69% 1.2 mph N1.9 kmh N 3.5 mph5.6 kmh 29.30 in992.2 mb - 0.00 in0.0 mm 0.00 in0.0 mm
09:30 AM 41.9°F5.5°C 30.2°F-1.0°C 63% Calm Calm -- 29.31 in992.6 mb - 0.00 in0.0 mm 0.00 in0.0 mm
09:45 AM 44.1°F6.7°C 31.5°F-0.3°C 61% 1.2 mph NW1.9 kmh NW 1.2 mph1.9 kmh 29.31 in992.6 mb - 0.00 in0.0 mm 0.00 in0.0 mm
10:00 AM 46.6°F8.1°C 31.7°F-0.2°C 56% 2.3 mph NNW3.7 kmh NNW 2.3 mph3.7 kmh 29.30 in992.2 mb - 0.00 in0.0 mm 0.00 in0.0 mm
10:15 AM 47.5°F8.6°C 32.1°F0.1°C 55% 1.2 mph E1.9 kmh E 2.3 mph3.7 kmh 29.30 in992.2 mb - 0.00 in0.0 mm 0.00 in0.0 mm
10:30 AM 48.2°F9.0°C 30.9°F-0.6°C 51% 2.3 mph NNE3.7 kmh NNE 2.3 mph3.7 kmh 29.30 in992.2 mb - 0.00 in0.0 mm 0.00 in0.0 mm
10:45 AM 48.1°F8.9°C 30.3°F-0.9°C 50% 2.3 mph W3.7 kmh W 4.6 mph7.4 kmh 29.30 in992.2 mb - 0.00 in0.0 mm 0.00 in0.0 mm
11:00 AM 49.0°F9.4°C 30.6°F-0.8°C 49% 2.3 mph NE3.7 kmh NE 3.5 mph5.6 kmh 29.31 in992.6 mb - 0.00 in0.0 mm 0.00 in0.0 mm
11:15 AM 50.5°F10.3°C 30.4°F-0.9°C 46% 3.5 mph NW5.6 kmh NW 3.5 mph5.6 kmh 29.31 in992.6 mb - 0.00 in0.0 mm 0.00 in0.0 mm
11:30 AM 51.0°F10.6°C 30.4°F-0.9°C 45% 2.3 mph N3.7 kmh N 3.5 mph5.6 kmh 29.30 in992.2 mb - 0.00 in0.0 mm 0.00 in0.0 mm
11:45 AM 52.9°F11.6°C 31.0°F-0.6°C 43% 1.2 mph SE1.9 kmh SE 1.2 mph1.9 kmh 29.30 in992.2 mb - 0.00 in0.0 mm 0.00 in0.0 mm
12:00 PM 56.5°F13.6°C 31.1°F-0.5°C 38% 3.5 mph N5.6 kmh N 3.5 mph5.6 kmh 29.30 in992.2 mb - 0.00 in0.0 mm 0.00 in0.0 mm
12:15 PM 54.7°F12.6°C 31.4°F-0.3°C 41% 3.5 mph SSE5.6 kmh SSE 3.5 mph5.6 kmh 29.29 in991.9 mb - 0.00 in0.0 mm 0.00 in0.0 mm
12:30 PM 58.6°F14.8°C 32.3°F0.2°C 37% 2.3 mph W3.7 kmh W 2.3 mph3.7 kmh 29.29 in991.9 mb - 0.00 in0.0 mm 0.00 in0.0 mm
12:45 PM 58.9°F14.9°C 32.0°F0.0°C 36% 1.2 mph SSE1.9 kmh SSE 1.2 mph1.9 kmh 29.29 in991.9 mb - 0.00 in0.0 mm 0.00 in0.0 mm
01:00 PM 59.6°F15.3°C 33.3°F0.7°C 37% 2.3 mph SSE3.7 kmh SSE 3.5 mph5.6 kmh 29.29 in991.9 mb - 0.00 in0.0 mm 0.00 in0.0 mm
01:15 PM 60.7°F15.9°C 34.2°F1.2°C 37% 1.2 mph S1.9 kmh S 1.2 mph1.9 kmh 29.27 in991.2 mb - 0.00 in0.0 mm 0.00 in0.0 mm
01:30 PM 64.4°F18.0°C 33.9°F1.1°C 32% 2.3 mph NW3.7 kmh NW 2.3 mph3.7 kmh 29.27 in991.2 mb - 0.00 in0.0 mm 0.00 in0.0 mm
01:45 PM 63.3°F17.4°C 33.7°F0.9°C 33% 3.5 mph NNW5.6 kmh NNW 3.5 mph5.6 kmh 29.26 in990.9 mb - 0.00 in0.0 mm 0.00 in0.0 mm
02:00 PM 61.6°F16.4°C 34.4°F1.3°C 36% 3.5 mph NW5.6 kmh NW 3.5 mph5.6 kmh 29.26 in990.9 mb - 0.00 in0.0 mm 0.00 in0.0 mm
02:15 PM 60.5°F15.8°C 32.7°F0.4°C 35% 4.6 mph SE7.4 kmh SE 5.8 mph9.3 kmh 29.26 in990.9 mb - 0.00 in0.0 mm 0.00 in0.0 mm
02:30 PM 62.4°F16.9°C 34.4°F1.3°C 35% 2.3 mph ESE3.7 kmh ESE 3.5 mph5.6 kmh 29.25 in990.5 mb - 0.00 in0.0 mm 0.00 in0.0 mm
02:45 PM 62.4°F16.9°C 35.1°F1.7°C 36% 2.3 mph SE3.7 kmh SE 2.3 mph3.7 kmh 29.24 in990.2 mb - 0.00 in0.0 mm 0.00 in0.0 mm
03:00 PM 65.1°F18.4°C 35.3°F1.8°C 33% 2.3 mph NW3.7 kmh NW 3.5 mph5.6 kmh 29.24 in990.2 mb - 0.00 in0.0 mm 0.00 in0.0 mm
03:15 PM 62.5°F16.9°C 32.3°F0.2°C 32% 3.5 mph NW5.6 kmh NW 3.5 mph5.6 kmh 29.24 in990.2 mb - 0.00 in0.0 mm 0.00 in0.0 mm
03:30 PM 60.6°F15.9°C 31.3°F-0.4°C 33% 2.3 mph W3.7 kmh W 2.3 mph3.7 kmh 29.24 in990.2 mb - 0.00 in0.0 mm 0.00 in0.0 mm
03:45 PM 57.8°F14.3°C 30.3°F-0.9°C 35% 3.5 mph WNW5.6 kmh WNW 3.5 mph5.6 kmh 29.24 in990.2 mb - 0.00 in0.0 mm 0.00 in0.0 mm
04:00 PM 54.7°F12.6°C 30.8°F-0.7°C 40% 2.3 mph NW3.7 kmh NW 3.5 mph5.6 kmh 29.23 in989.8 mb - 0.00 in0.0 mm 0.00 in0.0 mm
04:15 PM 54.7°F12.6°C 30.2°F-1.0°C 39% 2.3 mph W3.7 kmh W 2.3 mph3.7 kmh 29.23 in989.8 mb - 0.00 in0.0 mm 0.00 in0.0 mm
04:30 PM 52.7°F11.5°C 34.6°F1.4°C 50% 2.3 mph SSE3.7 kmh SSE 3.5 mph5.6 kmh 29.23 in989.8 mb - 0.00 in0.0 mm 0.00 in0.0 mm
04:45 PM 50.8°F10.4°C 34.7°F1.5°C 54% 2.3 mph S3.7 kmh S 3.5 mph5.6 kmh 29.23 in989.8 mb - 0.00 in0.0 mm 0.00 in0.0 mm
05:00 PM 49.7°F9.8°C 33.8°F1.0°C 54% 2.3 mph NW3.7 kmh NW 2.3 mph3.7 kmh 29.24 in990.2 mb - 0.00 in0.0 mm 0.00 in0.0 mm
05:15 PM 49.3°F9.6°C 32.9°F0.5°C 53% 3.5 mph S5.6 kmh S 3.5 mph5.6 kmh 29.24 in990.2 mb - 0.00 in0.0 mm 0.00 in0.0 mm
05:30 PM 48.2°F9.0°C 34.5°F1.4°C 59% 2.3 mph S3.7 kmh S 3.5 mph5.6 kmh 29.24 in990.2 mb - 0.00 in0.0 mm 0.00 in0.0 mm
05:45 PM 46.8°F8.2°C 33.2°F0.7°C 59% 2.3 mph SSE3.7 kmh SSE 3.5 mph5.6 kmh 29.24 in990.2 mb - 0.00 in0.0 mm 0.00 in0.0 mm
06:00 PM 45.9°F7.7°C 33.2°F0.7°C 61% 3.5 mph S5.6 kmh S 3.5 mph5.6 kmh 29.24 in990.2 mb - 0.00 in0.0 mm 0.00 in0.0 mm
06:15 PM 44.2°F6.8°C 32.4°F0.2°C 63% 3.5 mph S5.6 kmh S 4.6 mph7.4 kmh 29.24 in990.2 mb - 0.00 in0.0 mm 0.00 in0.0 mm
06:30 PM 43.0°F6.1°C 31.3°F-0.4°C 63% 3.5 mph SE5.6 kmh SE 3.5 mph5.6 kmh 29.24 in990.2 mb - 0.00 in0.0 mm 0.00 in0.0 mm
06:45 PM 41.7°F5.4°C 30.8°F-0.7°C 65% 3.5 mph SSE5.6 kmh SSE 3.5 mph5.6 kmh 29.24 in990.2 mb - 0.00 in0.0 mm 0.00 in0.0 mm
07:00 PM 40.6°F4.8°C 28.2°F-2.1°C 61% 3.5 mph S5.6 kmh S 3.5 mph5.6 kmh 29.24 in990.2 mb - 0.00 in0.0 mm 0.00 in0.0 mm
07:15 PM 39.7°F4.3°C 28.2°F-2.1°C 63% 3.5 mph SSE5.6 kmh SSE 4.6 mph7.4 kmh 29.25 in990.5 mb - 0.00 in0.0 mm 0.00 in0.0 mm
07:30 PM 39.0°F3.9°C 29.3°F-1.5°C 68% 3.5 mph SSE5.6 kmh SSE 3.5 mph5.6 kmh 29.25 in990.5 mb - 0.00 in0.0 mm 0.00 in0.0 mm
07:45 PM 38.3°F3.5°C 30.4°F-0.9°C 73% 1.2 mph S1.9 kmh S 2.3 mph3.7 kmh 29.25 in990.5 mb - 0.00 in0.0 mm 0.00 in0.0 mm
08:00 PM 37.9°F3.3°C 30.4°F-0.9°C 74% 1.2 mph SE1.9 kmh SE 1.2 mph1.9 kmh 29.26 in990.9 mb - 0.00 in0.0 mm 0.00 in0.0 mm
08:15 PM 37.4°F3.0°C 31.2°F-0.4°C 78% Calm Calm 1.2 mph1.9 kmh 29.27 in991.2 mb - 0.00 in0.0 mm 0.00 in0.0 mm
08:30 PM 37.0°F2.8°C 31.7°F-0.2°C 81% Calm Calm -- 29.27 in991.2 mb - 0.00 in0.0 mm 0.00 in0.0 mm
08:45 PM 36.7°F2.6°C 32.0°F0.0°C 83% Calm Calm -- 29.28 in991.5 mb - 0.00 in0.0 mm 0.00 in0.0 mm
09:00 PM 36.4°F2.4°C 32.4°F0.2°C 85% Calm Calm -- 29.28 in991.5 mb - 0.00 in0.0 mm 0.00 in0.0 mm
09:15 PM 36.3°F2.4°C 32.5°F0.3°C 86% Calm Calm -- 29.28 in991.5 mb - 0.00 in0.0 mm 0.00 in0.0 mm
09:30 PM 36.1°F2.3°C 32.6°F0.3°C 87% Calm Calm -- 29.28 in991.5 mb - 0.00 in0.0 mm 0.00 in0.0 mm
09:45 PM 36.0°F2.2°C 32.5°F0.3°C 87% Calm Calm -- 29.28 in991.5 mb - 0.00 in0.0 mm 0.00 in0.0 mm
10:00 PM 35.8°F2.1°C 32.9°F0.5°C 89% Calm Calm -- 29.28 in991.5 mb - 0.00 in0.0 mm 0.00 in0.0 mm
10:15 PM 35.8°F2.1°C 33.1°F0.6°C 90% Calm Calm -- 29.29 in991.9 mb - 0.00 in0.0 mm 0.00 in0.0 mm
10:30 PM 35.6°F2.0°C 33.0°F0.6°C 90% Calm Calm -- 29.29 in991.9 mb - 0.00 in0.0 mm 0.00 in0.0 mm
10:45 PM 35.4°F1.9°C 32.8°F0.4°C 90% Calm Calm -- 29.29 in991.9 mb - 0.00 in0.0 mm 0.00 in0.0 mm
11:00 PM 35.2°F1.8°C 32.6°F0.3°C 90% Calm Calm -- 29.29 in991.9 mb - 0.00 in0.0 mm 0.00 in0.0 mm
11:15 PM 35.1°F1.7°C 31.9°F-0.1°C 88% 2.3 mph SE3.7 kmh SE 2.3 mph3.7 kmh 29.29 in991.9 mb - 0.00 in0.0 mm 0.00 in0.0 mm
11:30 PM 34.7°F1.5°C 31.2°F-0.4°C 87% Calm Calm -- 29.30 in992.2 mb - 0.00 in0.0 mm 0.00 in0.0 mm
11:45 PM 34.2°F1.2°C 31.0°F-0.6°C 88% Calm Calm -- 29.30 in992.2 mb - 0.00 in0.0 mm 0.00 in0.0 mm